createdAt,value
2023-02-01T00:00:58.012Z,63.21
2023-02-01T00:03:24.915Z,63.13
2023-02-01T00:05:59.719Z,63.06
2023-02-01T00:08:27.116Z,62.82
2023-02-01T00:11:07.122Z,62.86
2023-02-01T00:13:36.532Z,62.69
2023-02-01T00:16:10.339Z,62.60
2023-02-01T00:18:37.537Z,62.70
2023-02-01T00:21:05.047Z,62.53
2023-02-01T00:23:36.812Z,62.42
2023-02-01T00:26:06.400Z,62.42
2023-02-01T00:28:34.304Z,62.56
2023-02-01T00:31:04.312Z,62.74
2023-02-01T00:33:32.565Z,63.00
2023-02-01T00:36:04.676Z,62.90
2023-02-01T00:38:32.276Z,63.19
2023-02-01T00:41:08.566Z,63.55
2023-02-01T00:43:35.836Z,63.53
2023-02-01T00:46:03.275Z,63.81
2023-02-01T00:48:30.637Z,63.50
2023-02-01T00:51:09.986Z,63.93
2023-02-01T00:53:37.365Z,63.94
2023-02-01T00:56:06.167Z,64.22
2023-02-01T00:58:34.171Z,64.16
2023-02-01T01:01:05.918Z,63.65
2023-02-01T01:03:35.429Z,63.72
2023-02-01T01:06:06.768Z,63.55
2023-02-01T01:08:34.661Z,63.48
2023-02-01T01:11:11.257Z,63.67
2023-02-01T01:13:38.534Z,63.42
2023-02-01T01:16:08.072Z,63.16
2023-02-01T01:18:36.119Z,63.36
2023-02-01T01:21:06.073Z,63.39
2023-02-01T01:23:33.088Z,63.07
2023-02-01T01:26:00.094Z,63.22
2023-02-01T01:28:27.115Z,63.25
2023-02-01T01:30:54.068Z,63.25
2023-02-01T01:33:21.010Z,63.34
2023-02-01T01:35:48.438Z,63.16
2023-02-01T01:38:15.365Z,63.38
2023-02-01T01:40:46.648Z,63.37
2023-02-01T01:43:16.967Z,63.46
2023-02-01T01:45:44.331Z,63.41
2023-02-01T01:48:22.398Z,63.32
2023-02-01T01:51:07.091Z,63.38
2023-02-01T01:53:46.586Z,63.45
2023-02-01T01:56:14.103Z,63.54
2023-02-01T01:58:41.945Z,63.24
2023-02-01T02:01:08.940Z,63.26
2023-02-01T02:03:46.987Z,63.25
2023-02-01T02:06:31.292Z,63.39
2023-02-01T02:08:58.176Z,63.46
2023-02-01T02:11:25.361Z,63.51
2023-02-01T02:13:55.166Z,63.26
2023-02-01T02:16:54.128Z,63.45
2023-02-01T02:19:23.884Z,63.50
2023-02-01T02:22:25.741Z,63.17
2023-02-01T02:25:20.472Z,62.97
2023-02-01T02:28:36.293Z,62.64
2023-02-01T02:31:42.711Z,62.42
2023-02-01T02:34:19.562Z,62.09
2023-02-01T02:37:24.076Z,61.84
2023-02-01T02:40:09.937Z,61.88
2023-02-01T02:43:19.951Z,61.96
2023-02-01T02:46:35.185Z,61.82
2023-02-01T02:49:30.341Z,61.98
2023-02-01T02:52:34.803Z,62.00
2023-02-01T02:55:05.427Z,62.32
2023-02-01T02:57:57.098Z,62.25
2023-02-01T03:00:50.476Z,62.54
2023-02-01T03:03:36.830Z,62.65
2023-02-01T03:06:03.773Z,62.37
2023-02-01T03:08:32.238Z,62.15
2023-02-01T03:11:11.313Z,62.53
2023-02-01T03:13:56.795Z,62.49
2023-02-01T03:16:50.580Z,62.23
2023-02-01T03:19:46.045Z,62.57
2023-02-01T03:22:16.868Z,62.63
2023-02-01T03:24:55.887Z,62.83
2023-02-01T03:27:37.076Z,62.72
2023-02-01T03:30:28.194Z,62.86
2023-02-01T03:33:01.873Z,63.01
2023-02-01T03:35:48.309Z,62.84
2023-02-01T03:38:40.145Z,63.03
2023-02-01T03:41:36.106Z,62.75
2023-02-01T03:44:10.613Z,62.80
2023-02-01T03:46:51.632Z,62.91
2023-02-01T03:49:30.396Z,62.59
2023-02-01T03:52:00.829Z,62.70
2023-02-01T03:54:29.484Z,62.80
2023-02-01T03:57:04.237Z,62.85
2023-02-01T03:59:31.228Z,62.61
2023-02-01T04:01:58.135Z,62.44
2023-02-01T04:04:25.152Z,62.51
2023-02-01T04:06:54.313Z,62.21
2023-02-01T04:09:22.544Z,62.55
2023-02-01T04:11:49.431Z,62.45
2023-02-01T04:14:16.327Z,62.69
2023-02-01T04:16:43.359Z,62.86
2023-02-01T04:19:10.323Z,62.74
2023-02-01T04:21:37.305Z,62.99
2023-02-01T04:24:04.561Z,63.12
2023-02-01T04:26:31.551Z,63.24
2023-02-01T04:28:58.593Z,63.23
2023-02-01T04:31:28.549Z,63.27
2023-02-01T04:33:58.507Z,63.16
2023-02-01T04:36:25.554Z,63.47
2023-02-01T04:38:53.242Z,63.52
2023-02-01T04:41:21.357Z,63.32
2023-02-01T04:43:48.892Z,63.49
2023-02-01T04:46:15.936Z,63.80
2023-02-01T04:48:43.357Z,63.66
2023-02-01T04:51:11.275Z,63.93
2023-02-01T04:53:38.281Z,64.09
2023-02-01T04:56:05.588Z,64.41
2023-02-01T04:58:32.499Z,64.52
2023-02-01T05:00:59.400Z,64.78
2023-02-01T05:03:26.346Z,65.07
2023-02-01T05:05:54.592Z,64.94
2023-02-01T05:08:23.397Z,65.52
2023-02-01T05:10:50.408Z,65.47
2023-02-01T05:13:35.533Z,65.69
2023-02-01T05:16:02.839Z,65.69
2023-02-01T05:18:29.911Z,65.88
2023-02-01T05:20:57.455Z,65.54
2023-02-01T05:23:24.368Z,65.24
2023-02-01T05:25:51.249Z,65.39
2023-02-01T05:28:18.153Z,65.57
2023-02-01T05:30:45.168Z,65.21
2023-02-01T05:33:12.161Z,65.35
2023-02-01T05:35:39.098Z,64.94
2023-02-01T05:38:06.021Z,65.29
2023-02-01T05:40:32.919Z,65.12
2023-02-01T05:42:59.802Z,65.46
2023-02-01T05:45:26.693Z,65.30
2023-02-01T05:47:53.584Z,65.32
2023-02-01T05:50:20.760Z,65.42
2023-02-01T05:52:56.640Z,65.56
2023-02-01T05:55:23.532Z,65.49
2023-02-01T05:57:50.497Z,65.54
2023-02-01T06:00:17.989Z,65.23
2023-02-01T06:02:44.945Z,65.79
2023-02-01T06:05:11.978Z,65.91
2023-02-01T06:07:38.974Z,66.09
2023-02-01T06:10:06.187Z,65.92
2023-02-01T06:12:33.077Z,65.97
2023-02-01T06:15:00.222Z,66.06
2023-02-01T06:17:27.205Z,66.31
2023-02-01T06:19:54.097Z,65.83
2023-02-01T06:22:22.561Z,65.71
2023-02-01T06:24:49.840Z,65.86
2023-02-01T06:27:16.737Z,65.53
2023-02-01T06:29:43.642Z,65.31
2023-02-01T06:32:10.789Z,65.58
2023-02-01T06:34:40.531Z,65.34
2023-02-01T06:37:07.391Z,65.12
2023-02-01T06:39:34.391Z,65.66
2023-02-01T06:42:01.263Z,65.36
2023-02-01T06:44:28.148Z,65.28
2023-02-01T06:46:55.850Z,65.04
2023-02-01T06:49:23.123Z,65.15
2023-02-01T06:51:50.253Z,65.16
2023-02-01T06:54:17.328Z,65.05
2023-02-01T06:56:44.224Z,64.95
2023-02-01T06:59:12.608Z,64.76
2023-02-01T07:01:39.732Z,64.67
2023-02-01T07:04:06.708Z,64.41
2023-02-01T07:06:33.591Z,64.09
2023-02-01T07:09:01.469Z,64.14
2023-02-01T07:11:29.043Z,63.94
2023-02-01T07:13:55.941Z,63.69
2023-02-01T07:16:23.009Z,63.96
2023-02-01T07:18:52.057Z,63.88
2023-02-01T07:21:20.152Z,63.73
2023-02-01T07:23:47.138Z,63.60
2023-02-01T07:26:15.582Z,63.83
2023-02-01T07:28:42.747Z,63.60
2023-02-01T07:31:14.413Z,63.71
2023-02-01T07:33:41.359Z,63.33
2023-02-01T07:36:13.326Z,63.23
2023-02-01T07:38:40.266Z,63.24
2023-02-01T07:41:08.983Z,63.02
2023-02-01T07:43:36.662Z,62.78
2023-02-01T07:46:06.331Z,62.70
2023-02-01T07:48:35.012Z,62.53
2023-02-01T07:51:06.097Z,62.71
2023-02-01T07:53:34.875Z,63.08
2023-02-01T07:56:02.764Z,62.63
2023-02-01T07:58:29.750Z,63.16
2023-02-01T08:01:15.595Z,62.91
2023-02-01T08:03:42.683Z,63.04
2023-02-01T08:06:09.602Z,63.19
2023-02-01T08:08:36.713Z,63.44
2023-02-01T08:11:06.298Z,62.98
2023-02-01T08:13:36.260Z,63.13
2023-02-01T08:16:06.643Z,62.96
2023-02-01T08:18:34.266Z,62.96
2023-02-01T08:21:21.135Z,63.31
2023-02-01T08:23:48.158Z,63.51
2023-02-01T08:26:25.151Z,63.26
2023-02-01T08:28:56.546Z,63.56
2023-02-01T08:31:26.209Z,63.23
2023-02-01T08:33:56.731Z,63.53
2023-02-01T08:36:25.833Z,63.31
2023-02-01T08:38:53.023Z,63.07
2023-02-01T08:41:24.104Z,63.14
2023-02-01T08:43:51.253Z,63.00
2023-02-01T08:46:18.639Z,63.12
2023-02-01T08:48:48.057Z,63.22
2023-02-01T08:51:18.602Z,63.06
2023-02-01T08:53:45.545Z,62.77
2023-02-01T08:56:14.574Z,62.48
2023-02-01T08:58:41.848Z,62.08
2023-02-01T09:01:13.429Z,62.37
2023-02-01T09:03:40.765Z,62.36
2023-02-01T09:06:14.196Z,62.47
2023-02-01T09:08:43.916Z,62.36
2023-02-01T09:11:17.542Z,62.36
2023-02-01T09:13:44.474Z,62.40
2023-02-01T09:16:11.925Z,62.38
2023-02-01T09:18:46.055Z,62.20
2023-02-01T09:21:23.220Z,62.36
2023-02-01T09:23:52.417Z,62.39
2023-02-01T09:26:19.855Z,62.45
2023-02-01T09:28:49.927Z,62.74
2023-02-01T09:31:16.847Z,62.96
2023-02-01T09:33:43.798Z,62.92
2023-02-01T09:36:10.704Z,63.02
2023-02-01T09:38:41.701Z,63.14
2023-02-01T09:41:50.926Z,62.76
2023-02-01T09:44:44.854Z,63.04
2023-02-01T09:47:15.545Z,63.01
2023-02-01T09:50:03.769Z,62.67
2023-02-01T09:52:44.285Z,62.58
2023-02-01T09:55:35.935Z,62.39
2023-02-01T09:58:15.570Z,62.77
2023-02-01T10:00:53.668Z,62.29
2023-02-01T10:03:21.551Z,62.25
2023-02-01T10:06:21.808Z,62.11
2023-02-01T10:09:22.106Z,62.08
2023-02-01T10:12:52.061Z,61.82
2023-02-01T10:15:45.969Z,61.66
2023-02-01T10:18:31.272Z,61.59
2023-02-01T10:21:28.624Z,61.63
2023-02-01T10:24:17.363Z,61.14
2023-02-01T10:26:52.538Z,60.74
2023-02-01T10:29:23.859Z,60.50
2023-02-01T10:31:50.924Z,60.22
2023-02-01T10:34:31.143Z,59.57
2023-02-01T10:37:32.195Z,60.09
2023-02-01T10:40:12.776Z,59.61
2023-02-01T10:42:41.269Z,59.00
2023-02-01T10:45:15.341Z,58.62
2023-02-01T10:47:43.259Z,58.61
2023-02-01T10:50:35.709Z,58.64
2023-02-01T10:53:26.381Z,58.74
2023-02-01T10:55:55.855Z,58.59
2023-02-01T10:58:32.915Z,58.68
2023-02-01T11:01:07.357Z,58.62
2023-02-01T11:04:05.754Z,58.58
2023-02-01T11:06:39.088Z,58.83
2023-02-01T11:09:09.048Z,57.96
2023-02-01T11:11:47.984Z,58.22
2023-02-01T11:14:31.798Z,57.37
2023-02-01T11:17:01.466Z,57.76
2023-02-01T11:19:29.495Z,58.12
2023-02-01T11:21:59.732Z,57.80
2023-02-01T11:24:30.695Z,57.13
2023-02-01T11:26:59.145Z,57.00
2023-02-01T11:29:34.550Z,55.92
2023-02-01T11:32:02.417Z,56.21
2023-02-01T11:34:43.935Z,56.22
2023-02-01T11:37:31.032Z,56.69
2023-02-01T11:40:04.984Z,56.75
2023-02-01T11:42:32.960Z,56.67
2023-02-01T11:45:32.126Z,56.29
2023-02-01T11:48:01.292Z,56.64
2023-02-01T11:51:06.937Z,55.94
2023-02-01T11:54:11.354Z,55.88
2023-02-01T11:56:57.742Z,55.79
2023-02-01T11:59:56.738Z,55.94
2023-02-01T12:03:10.870Z,55.89
2023-02-01T12:06:00.452Z,55.48
2023-02-01T12:08:37.947Z,54.99
2023-02-01T12:11:47.805Z,55.89
2023-02-01T12:15:00.301Z,55.90
2023-02-01T12:17:42.795Z,56.26
2023-02-01T12:20:48.945Z,56.04
2023-02-01T12:23:36.703Z,56.31
2023-02-01T12:26:53.340Z,56.53
2023-02-01T12:29:40.787Z,56.84
2023-02-01T12:32:44.424Z,57.07
2023-02-01T12:35:21.135Z,57.26
2023-02-01T12:38:06.920Z,57.21
2023-02-01T12:40:53.996Z,56.75
2023-02-01T12:43:47.958Z,57.04
2023-02-01T12:46:23.088Z,57.50
2023-02-01T12:49:05.745Z,57.01
2023-02-01T12:51:42.696Z,56.01
2023-02-01T12:54:31.956Z,55.80
2023-02-01T12:57:04.104Z,56.06
2023-02-01T12:59:44.176Z,56.13
2023-02-01T13:02:41.908Z,55.65
2023-02-01T13:05:29.522Z,56.11
2023-02-01T13:08:08.850Z,55.83
2023-02-01T13:10:52.353Z,55.39
2023-02-01T13:13:33.399Z,55.69
2023-02-01T13:16:30.072Z,55.42
2023-02-01T13:19:51.392Z,55.32
2023-02-01T13:22:42.127Z,55.66
2023-02-01T13:25:14.844Z,55.31
2023-02-01T13:27:41.819Z,54.87
2023-02-01T13:30:09.540Z,54.14
2023-02-01T13:33:53.728Z,54.93
2023-02-01T13:36:21.384Z,54.90
2023-02-01T13:39:05.340Z,54.36
2023-02-01T13:41:53.954Z,54.49
2023-02-01T13:44:30.683Z,54.31
2023-02-01T13:47:03.328Z,54.87
2023-02-01T13:49:38.597Z,54.93
2023-02-01T13:52:06.377Z,55.13
2023-02-01T13:54:41.326Z,54.90
2023-02-01T13:57:39.237Z,54.84
2023-02-01T14:00:27.215Z,55.48
2023-02-01T14:03:06.697Z,56.00
2023-02-01T14:05:35.404Z,56.45
2023-02-01T14:08:13.983Z,56.74
2023-02-01T14:10:51.794Z,57.40
2023-02-01T14:13:41.991Z,57.21
2023-02-01T14:16:14.231Z,57.29
2023-02-01T14:18:50.391Z,57.09
2023-02-01T14:21:28.244Z,57.30
2023-02-01T14:23:54.987Z,57.45
2023-02-01T14:26:46.326Z,57.26
2023-02-01T14:29:20.830Z,57.31
2023-02-01T14:32:07.060Z,57.40
2023-02-01T14:34:48.024Z,57.15
2023-02-01T14:37:17.888Z,57.62
2023-02-01T14:39:47.758Z,58.28
2023-02-01T14:42:36.447Z,58.09
2023-02-01T14:45:25.042Z,58.17
2023-02-01T14:48:15.932Z,58.43
2023-02-01T14:50:45.590Z,58.82
2023-02-01T14:53:15.634Z,58.85
2023-02-01T14:56:15.034Z,59.39
2023-02-01T14:58:49.796Z,59.24
2023-02-01T15:01:32.009Z,59.41
2023-02-01T15:04:16.040Z,59.85
2023-02-01T15:06:57.544Z,60.10
2023-02-01T15:09:43.712Z,60.44
2023-02-01T15:12:13.538Z,59.72
2023-02-01T15:14:49.790Z,59.71
2023-02-01T15:17:26.230Z,60.05
2023-02-01T15:20:14.079Z,60.22
2023-02-01T15:22:41.581Z,59.90
2023-02-01T15:25:31.449Z,60.10
2023-02-01T15:27:58.576Z,59.80
2023-02-01T15:30:32.113Z,60.16
2023-02-01T15:33:13.267Z,60.12
2023-02-01T15:35:47.147Z,60.24
2023-02-01T15:38:22.431Z,60.32
2023-02-01T15:41:18.661Z,60.50
2023-02-01T15:43:54.388Z,60.62
2023-02-01T15:46:37.642Z,60.91
2023-02-01T15:49:05.154Z,61.08
2023-02-01T15:51:33.754Z,60.81
2023-02-01T15:54:08.617Z,61.17
2023-02-01T15:56:38.640Z,61.21
2023-02-01T15:59:17.899Z,61.19
2023-02-01T16:01:45.366Z,61.52
2023-02-01T16:04:25.358Z,61.18
2023-02-01T16:06:56.089Z,61.58
2023-02-01T16:09:28.245Z,61.62
2023-02-01T16:11:59.845Z,61.67
2023-02-01T16:14:28.096Z,61.64
2023-02-01T16:16:58.349Z,62.19
2023-02-01T16:19:28.888Z,61.97
2023-02-01T16:21:59.890Z,62.08
2023-02-01T16:24:26.972Z,62.14
2023-02-01T16:26:53.992Z,62.43
2023-02-01T16:29:22.550Z,62.47
2023-02-01T16:31:50.377Z,62.66
2023-02-01T16:34:18.127Z,62.37
2023-02-01T16:36:52.583Z,62.66
2023-02-01T16:39:20.942Z,62.91
2023-02-01T16:41:48.268Z,62.67
2023-02-01T16:44:15.209Z,62.31
2023-02-01T16:46:48.208Z,62.41
2023-02-01T16:49:26.283Z,62.66
2023-02-01T16:51:58.947Z,62.63
2023-02-01T16:54:27.582Z,62.48
2023-02-01T16:56:55.269Z,62.33
2023-02-01T16:59:22.149Z,62.34
2023-02-01T17:01:49.048Z,62.27
2023-02-01T17:04:17.506Z,62.27
2023-02-01T17:06:48.126Z,62.07
2023-02-01T17:09:15.251Z,61.68
2023-02-01T17:11:42.170Z,62.09
2023-02-01T17:14:22.302Z,62.01
2023-02-01T17:16:50.527Z,61.92
2023-02-01T17:19:24.294Z,62.18
2023-02-01T17:21:56.533Z,62.37
2023-02-01T17:24:35.723Z,62.53
2023-02-01T17:27:06.137Z,62.48
2023-02-01T17:29:33.320Z,62.89
2023-02-01T17:32:01.313Z,62.85
2023-02-01T17:34:28.527Z,63.55
2023-02-01T17:36:55.467Z,64.04
2023-02-01T17:39:41.268Z,64.22
2023-02-01T17:42:12.251Z,64.60
2023-02-01T17:44:39.151Z,64.37
2023-02-01T17:47:06.046Z,64.99
2023-02-01T17:49:35.194Z,65.22
2023-02-01T17:52:02.303Z,64.96
2023-02-01T17:54:29.199Z,65.23
2023-02-01T17:57:00.179Z,65.28
2023-02-01T17:59:27.596Z,65.58
2023-02-01T18:02:00.625Z,65.63
2023-02-01T18:04:27.587Z,65.66
2023-02-01T18:06:54.509Z,65.50
2023-02-01T18:09:21.381Z,65.70
2023-02-01T18:11:49.261Z,65.51
2023-02-01T18:14:16.165Z,65.53
2023-02-01T18:16:43.086Z,65.38
2023-02-01T18:19:10.001Z,65.24
2023-02-01T18:21:41.754Z,65.27
2023-02-01T18:24:14.313Z,65.29
2023-02-01T18:26:42.469Z,65.43
2023-02-01T18:29:09.817Z,65.65
2023-02-01T18:31:45.719Z,65.64
2023-02-01T18:34:17.162Z,65.52
2023-02-01T18:36:44.068Z,65.51
2023-02-01T18:39:11.706Z,65.56
2023-02-01T18:41:38.730Z,65.24
2023-02-01T18:44:05.677Z,65.39
2023-02-01T18:46:32.603Z,65.21
2023-02-01T18:48:59.616Z,65.10
2023-02-01T18:51:26.519Z,65.00
2023-02-01T18:53:54.006Z,64.89
2023-02-01T18:56:20.895Z,64.67
2023-02-01T18:58:47.977Z,64.48
2023-02-01T19:01:21.813Z,64.16
2023-02-01T19:03:55.442Z,64.47
2023-02-01T19:06:28.476Z,64.35
2023-02-01T19:08:56.138Z,64.41
2023-02-01T19:11:23.399Z,64.29
2023-02-01T19:13:51.287Z,64.20
2023-02-01T19:16:18.383Z,64.22
2023-02-01T19:18:45.312Z,64.22
2023-02-01T19:21:13.641Z,64.26
2023-02-01T19:23:41.988Z,64.16
2023-02-01T19:26:14.768Z,63.94
2023-02-01T19:28:44.552Z,63.77
2023-02-01T19:31:11.569Z,63.66
2023-02-01T19:33:38.497Z,63.41
2023-02-01T19:36:09.342Z,63.30
2023-02-01T19:38:36.441Z,63.14
2023-02-01T19:41:03.361Z,63.17
2023-02-01T19:43:30.297Z,63.10
2023-02-01T19:45:57.527Z,63.48
2023-02-01T19:48:24.660Z,63.13
2023-02-01T19:50:51.550Z,63.36
2023-02-01T19:53:19.558Z,63.32
2023-02-01T19:55:47.236Z,63.08
2023-02-01T19:58:14.531Z,63.29
2023-02-01T20:00:40.853Z,63.12
2023-02-01T20:03:08.182Z,63.15
2023-02-01T20:05:35.176Z,63.07
2023-02-01T20:08:02.394Z,63.07
2023-02-01T20:10:29.493Z,63.13
2023-02-01T20:12:56.382Z,62.82
2023-02-01T20:15:26.854Z,63.03
2023-02-01T20:17:54.049Z,62.96
2023-02-01T20:20:20.968Z,62.94
2023-02-01T20:22:47.900Z,62.97
2023-02-01T20:25:14.852Z,62.84
2023-02-01T20:27:42.681Z,62.84
2023-02-01T20:30:10.811Z,62.63
2023-02-01T20:32:37.695Z,62.67
2023-02-01T20:35:04.758Z,62.53
2023-02-01T20:37:31.756Z,62.48
2023-02-01T20:39:58.623Z,62.68
2023-02-01T20:42:25.499Z,62.38
2023-02-01T20:44:52.386Z,62.51
2023-02-01T20:47:19.275Z,62.40
2023-02-01T20:49:46.155Z,62.47
2023-02-01T20:52:13.082Z,62.18
2023-02-01T20:54:40.285Z,62.33
2023-02-01T20:57:07.365Z,62.21
2023-02-01T20:59:34.302Z,62.01
2023-02-01T21:02:01.497Z,61.90
2023-02-01T21:04:29.451Z,61.80
2023-02-01T21:06:57.860Z,61.54
2023-02-01T21:09:25.541Z,61.53
2023-02-01T21:11:53.361Z,61.14
2023-02-01T21:14:20.684Z,60.45
2023-02-01T21:16:48.525Z,60.85
2023-02-01T21:19:17.571Z,60.78
2023-02-01T21:21:44.719Z,60.82
2023-02-01T21:24:11.595Z,60.23
2023-02-01T21:26:41.231Z,60.38
2023-02-01T21:29:12.110Z,60.48
2023-02-01T21:31:40.167Z,60.28
2023-02-01T21:34:07.262Z,60.39
2023-02-01T21:36:35.331Z,60.19
2023-02-01T21:39:05.155Z,60.18
2023-02-01T21:41:52.556Z,60.31
2023-02-01T21:44:20.017Z,60.13
2023-02-01T21:46:47.089Z,60.17
2023-02-01T21:49:14.341Z,59.80
2023-02-01T21:51:42.607Z,59.94
2023-02-01T21:54:11.362Z,60.06
2023-02-01T21:56:39.191Z,59.76
2023-02-01T21:59:06.580Z,59.83
2023-02-01T22:01:33.593Z,59.78
2023-02-01T22:04:00.499Z,59.47
2023-02-01T22:06:30.767Z,59.54
2023-02-01T22:08:57.957Z,59.70
2023-02-01T22:11:25.560Z,59.72
2023-02-01T22:13:52.557Z,59.80
2023-02-01T22:16:21.476Z,59.77
2023-02-01T22:18:50.496Z,59.80
2023-02-01T22:21:18.629Z,59.93
2023-02-01T22:23:45.807Z,59.58
2023-02-01T22:26:13.852Z,59.49
2023-02-01T22:28:41.112Z,59.45
2023-02-01T22:31:09.946Z,59.40
2023-02-01T22:33:37.516Z,59.45
2023-02-01T22:36:05.752Z,59.33
2023-02-01T22:38:34.684Z,59.44
2023-02-01T22:41:05.580Z,59.42
2023-02-01T22:43:33.226Z,59.41
2023-02-01T22:46:02.124Z,59.43
2023-02-01T22:48:30.805Z,59.45
2023-02-01T22:50:58.567Z,59.72
2023-02-01T22:53:25.811Z,59.41
2023-02-01T22:55:52.805Z,59.66
2023-02-01T22:58:19.892Z,59.66
2023-02-01T23:00:47.062Z,59.55
2023-02-01T23:03:13.984Z,59.75
2023-02-01T23:05:40.829Z,59.78
2023-02-01T23:08:07.781Z,59.82
2023-02-01T23:10:34.742Z,59.91
2023-02-01T23:13:01.769Z,59.79
2023-02-01T23:15:28.712Z,60.06
2023-02-01T23:17:55.805Z,60.45
2023-02-01T23:20:22.667Z,60.55
2023-02-01T23:22:49.994Z,60.42
2023-02-01T23:25:18.635Z,60.59
2023-02-01T23:27:47.300Z,60.64
2023-02-01T23:30:16.545Z,60.98
2023-02-01T23:32:43.604Z,60.94
2023-02-01T23:35:10.626Z,61.12
2023-02-01T23:37:37.503Z,61.28
2023-02-01T23:40:05.068Z,61.79
2023-02-01T23:42:31.967Z,61.82
2023-02-01T23:44:58.873Z,61.91
2023-02-01T23:47:25.793Z,61.95
2023-02-01T23:49:52.973Z,62.17
2023-02-01T23:52:19.981Z,62.37
2023-02-01T23:54:47.217Z,62.59
2023-02-01T23:57:14.322Z,62.15
2023-02-01T23:59:41.205Z,62.10
